createdAt,value
2018-02-24T00:01:23.607Z,103280.02
2018-02-24T00:03:51.588Z,103289.52
2018-02-24T00:06:20.654Z,103281.28
2018-02-24T00:08:48.373Z,103279.41
2018-02-24T00:11:16.358Z,103284.52
2018-02-24T00:13:44.232Z,103277.23
2018-02-24T00:16:13.220Z,103278.20
2018-02-24T00:18:42.343Z,103273.98
2018-02-24T00:21:10.142Z,103275.03
2018-02-24T00:23:39.666Z,103269.44
2018-02-24T00:26:08.900Z,103281.08
2018-02-24T00:28:36.642Z,103291.41
2018-02-24T00:31:04.582Z,103285.97
2018-02-24T00:33:32.713Z,103286.83
2018-02-24T00:36:01.229Z,103293.23
2018-02-24T00:38:30.706Z,103290.48
2018-02-24T00:40:59.080Z,103288.89
2018-02-24T00:43:26.942Z,103282.25
2018-02-24T00:45:55.496Z,103285.13
2018-02-24T00:48:24.506Z,103278.94
2018-02-24T00:50:53.262Z,103278.59
2018-02-24T00:53:21.655Z,103268.47
2018-02-24T00:55:50.692Z,103268.65
2018-02-24T00:58:18.992Z,103273.61
2018-02-24T01:00:47.665Z,103275.15
2018-02-24T01:03:16.563Z,103272.95
2018-02-24T01:05:46.930Z,103269.63
2018-02-24T01:08:15.425Z,103268.77
2018-02-24T01:10:45.129Z,103262.50
2018-02-24T01:13:12.986Z,103271.30
2018-02-24T01:15:43.674Z,103268.85
2018-02-24T01:18:12.580Z,103263.61
2018-02-24T01:20:41.256Z,103270.83
2018-02-24T01:23:09.355Z,103274.06
2018-02-24T01:25:37.217Z,103280.97
2018-02-24T01:28:05.265Z,103273.34
2018-02-24T01:30:33.960Z,103271.09
2018-02-24T01:33:03.067Z,103278.88
2018-02-24T01:35:32.189Z,103279.88
2018-02-24T01:38:01.286Z,103280.69
2018-02-24T01:40:30.713Z,103283.40
2018-02-24T01:43:00.179Z,103287.14
2018-02-24T01:45:29.429Z,103287.58
2018-02-24T01:47:58.109Z,103284.59
2018-02-24T01:50:26.069Z,103287.15
2018-02-24T01:52:55.792Z,103281.13
2018-02-24T01:55:24.305Z,103281.36
2018-02-24T01:57:52.466Z,103280.65
2018-02-24T02:00:21.229Z,103280.99
2018-02-24T02:02:50.177Z,103288.67
2018-02-24T02:05:20.347Z,103279.33
2018-02-24T02:07:49.399Z,103278.40
2018-02-24T02:10:18.041Z,103269.61
2018-02-24T02:12:46.639Z,103267.61
2018-02-24T02:15:14.532Z,103278.30
2018-02-24T02:17:44.362Z,103281.16
2018-02-24T02:20:12.551Z,103279.95
2018-02-24T02:22:42.747Z,103271.28
2018-02-24T02:25:10.772Z,103276.19
2018-02-24T02:27:40.169Z,103259.48
2018-02-24T02:30:07.925Z,103257.44
2018-02-24T02:32:36.695Z,103269.05
2018-02-24T02:35:04.443Z,103255.38
2018-02-24T02:37:33.270Z,103244.02
2018-02-24T02:40:03.182Z,103238.14
2018-02-24T02:42:31.196Z,103237.91
2018-02-24T02:44:59.504Z,103229.33
2018-02-24T02:47:30.370Z,103233.80
2018-02-24T02:49:58.085Z,103235.83
2018-02-24T02:52:26.747Z,103238.77
2018-02-24T02:54:54.926Z,103240.05
2018-02-24T02:57:24.362Z,103249.58
2018-02-24T02:59:52.475Z,103249.30
2018-02-24T03:02:21.566Z,103248.93
2018-02-24T03:04:50.293Z,103240.14
2018-02-24T03:07:19.772Z,103254.72
2018-02-24T03:09:48.283Z,103252.23
2018-02-24T03:12:19.058Z,103267.11
2018-02-24T03:14:50.508Z,103269.19
2018-02-24T03:17:19.388Z,103272.93
2018-02-24T03:19:47.985Z,103266.45
2018-02-24T03:22:20.743Z,103269.50
2018-02-24T03:24:48.626Z,103273.00
2018-02-24T03:27:17.764Z,103277.27
2018-02-24T03:29:46.534Z,103278.55
2018-02-24T03:32:16.655Z,103283.67
2018-02-24T03:34:47.817Z,103298.17
2018-02-24T03:37:16.416Z,103303.52
2018-02-24T03:39:47.887Z,103299.17
2018-02-24T03:42:17.547Z,103295.78
2018-02-24T03:44:47.318Z,103295.22
2018-02-24T03:47:15.173Z,103280.58
2018-02-24T03:49:44.706Z,103285.55
2018-02-24T03:52:13.252Z,103297.19
2018-02-24T03:54:42.006Z,103298.77
2018-02-24T03:57:14.522Z,103303.89
2018-02-24T03:59:43.106Z,103296.91
2018-02-24T04:02:10.935Z,103305.70
2018-02-24T04:04:40.482Z,103302.88
2018-02-24T04:07:08.847Z,103296.37
2018-02-24T04:09:36.946Z,103298.47
2018-02-24T04:12:07.260Z,103292.42
2018-02-24T04:14:36.869Z,103285.48
2018-02-24T04:17:05.965Z,103288.38
2018-02-24T04:19:33.792Z,103288.59
2018-02-24T04:22:02.729Z,103283.91
2018-02-24T04:24:30.576Z,103282.39
2018-02-24T04:26:59.453Z,103282.23
2018-02-24T04:29:27.389Z,103286.94
2018-02-24T04:31:55.856Z,103286.63
2018-02-24T04:34:24.219Z,103287.21
2018-02-24T04:36:53.720Z,103281.42
2018-02-24T04:39:23.146Z,103287.16
2018-02-24T04:41:51.005Z,103282.30
2018-02-24T04:44:19.596Z,103283.02
2018-02-24T04:46:47.948Z,103281.27
2018-02-24T04:49:15.966Z,103291.88
2018-02-24T04:51:44.112Z,103296.88
2018-02-24T04:54:12.992Z,103301.67
2018-02-24T04:56:41.486Z,103297.36
2018-02-24T04:59:09.253Z,103306.61
2018-02-24T05:01:38.711Z,103310.92
2018-02-24T05:04:06.666Z,103308.76
2018-02-24T05:06:34.428Z,103318.15
2018-02-24T05:09:03.260Z,103324.77
2018-02-24T05:11:32.052Z,103325.85
2018-02-24T05:13:59.883Z,103325.71
2018-02-24T05:16:28.567Z,103330.59
2018-02-24T05:18:56.990Z,103339.39
2018-02-24T05:21:26.527Z,103334.64
2018-02-24T05:23:55.428Z,103343.72
2018-02-24T05:26:24.043Z,103353.20
2018-02-24T05:28:53.456Z,103360.46
2018-02-24T05:31:21.241Z,103366.09
2018-02-24T05:33:49.852Z,103366.13
2018-02-24T05:36:19.267Z,103374.56
2018-02-24T05:38:48.503Z,103377.48
2018-02-24T05:41:18.915Z,103387.92
2018-02-24T05:43:48.758Z,103392.08
2018-02-24T05:46:18.460Z,103397.73
2018-02-24T05:48:46.396Z,103415.72
2018-02-24T05:51:15.081Z,103411.53
2018-02-24T05:53:43.374Z,103406.11
2018-02-24T05:56:11.213Z,103402.92
2018-02-24T05:58:38.952Z,103414.08
2018-02-24T06:01:07.132Z,103418.21
2018-02-24T06:03:36.926Z,103423.76
2018-02-24T06:06:06.815Z,103428.38
2018-02-24T06:08:35.482Z,103435.61
2018-02-24T06:11:05.440Z,103433.27
2018-02-24T06:13:34.012Z,103444.27
2018-02-24T06:16:01.790Z,103448.36
2018-02-24T06:18:29.832Z,103447.73
2018-02-24T06:20:58.789Z,103448.16
2018-02-24T06:23:27.906Z,103450.96
2018-02-24T06:25:59.412Z,103456.45
2018-02-24T06:28:28.150Z,103465.86
2018-02-24T06:30:56.951Z,103457.58
2018-02-24T06:33:26.230Z,103459.86
2018-02-24T06:35:55.804Z,103457.84
2018-02-24T06:38:25.080Z,103452.88
2018-02-24T06:40:53.564Z,103448.27
2018-02-24T06:43:22.431Z,103446.96
2018-02-24T06:45:50.471Z,103454.45
2018-02-24T06:48:18.671Z,103457.99
2018-02-24T06:50:46.644Z,103452.45
2018-02-24T06:53:16.298Z,103456.22
2018-02-24T06:55:44.999Z,103459.08
2018-02-24T06:58:14.205Z,103452.25
2018-02-24T07:00:41.918Z,103446.90
2018-02-24T07:03:11.018Z,103439.58
2018-02-24T07:05:40.531Z,103442.09
2018-02-24T07:08:10.501Z,103445.92
2018-02-24T07:10:40.754Z,103443.06
2018-02-24T07:13:09.246Z,103437.78
2018-02-24T07:15:37.689Z,103443.98
2018-02-24T07:18:06.405Z,103445.62
2018-02-24T07:20:35.031Z,103438.42
2018-02-24T07:23:04.335Z,103440.09
2018-02-24T07:25:32.832Z,103437.78
2018-02-24T07:28:01.396Z,103436.02
2018-02-24T07:30:29.456Z,103436.97
2018-02-24T07:32:59.044Z,103436.25
2018-02-24T07:35:27.344Z,103430.13
2018-02-24T07:37:55.537Z,103442.21
2018-02-24T07:40:24.962Z,103440.09
2018-02-24T07:42:53.189Z,103434.59
2018-02-24T07:45:22.231Z,103425.75
2018-02-24T07:47:51.570Z,103421.80
2018-02-24T07:50:19.370Z,103415.23
2018-02-24T07:52:47.875Z,103396.48
2018-02-24T07:55:16.373Z,103377.58
2018-02-24T07:57:45.866Z,103391.92
2018-02-24T08:00:16.983Z,103393.80
2018-02-24T08:02:45.034Z,103391.81
2018-02-24T08:05:13.660Z,103390.79
2018-02-24T08:07:42.507Z,103386.29
2018-02-24T08:10:10.302Z,103381.66
2018-02-24T08:12:38.874Z,103384.12
2018-02-24T08:15:08.281Z,103367.20
2018-02-24T08:17:37.326Z,103378.98
2018-02-24T08:20:07.434Z,103384.78
2018-02-24T08:22:36.029Z,103374.50
2018-02-24T08:25:05.541Z,103378.05
2018-02-24T08:27:34.440Z,103381.88
2018-02-24T08:30:02.269Z,103377.59
2018-02-24T08:32:30.650Z,103368.35
2018-02-24T08:35:02.994Z,103378.97
2018-02-24T08:37:32.750Z,103367.20
2018-02-24T08:40:00.711Z,103378.02
2018-02-24T08:42:30.258Z,103366.55
2018-02-24T08:45:00.892Z,103352.84
2018-02-24T08:47:33.095Z,103356.94
2018-02-24T08:50:00.906Z,103363.89
2018-02-24T08:52:28.780Z,103361.30
2018-02-24T08:54:57.992Z,103366.34
2018-02-24T08:57:27.285Z,103367.89
2018-02-24T08:59:55.170Z,103363.20
2018-02-24T09:02:23.381Z,103351.53
2018-02-24T09:04:52.191Z,103367.98
2018-02-24T09:07:20.967Z,103369.98
2018-02-24T09:09:49.597Z,103367.11
2018-02-24T09:12:18.416Z,103370.33
2018-02-24T09:14:47.583Z,103377.58
2018-02-24T09:17:15.346Z,103360.73
2018-02-24T09:19:44.341Z,103368.09
2018-02-24T09:22:13.683Z,103375.02
2018-02-24T09:24:42.077Z,103375.70
2018-02-24T09:27:10.337Z,103383.47
2018-02-24T09:29:40.485Z,103381.23
2018-02-24T09:32:09.338Z,103384.03
2018-02-24T09:34:37.398Z,103383.73
2018-02-24T09:37:07.236Z,103390.47
2018-02-24T09:39:35.786Z,103393.50
2018-02-24T09:42:03.626Z,103393.66
2018-02-24T09:44:33.330Z,103375.36
2018-02-24T09:47:01.834Z,103380.91
2018-02-24T09:49:29.857Z,103378.98
2018-02-24T09:51:58.315Z,103378.60
2018-02-24T09:54:27.224Z,103385.27
2018-02-24T09:56:56.111Z,103379.52
2018-02-24T09:59:26.236Z,103373.66
2018-02-24T10:01:56.191Z,103374.30
2018-02-24T10:04:25.090Z,103378.14
2018-02-24T10:06:54.313Z,103383.95
2018-02-24T10:09:23.831Z,103380.25
2018-02-24T10:11:52.128Z,103387.33
2018-02-24T10:14:21.671Z,103378.70
2018-02-24T10:16:50.770Z,103382.13
2018-02-24T10:19:22.795Z,103377.27
2018-02-24T10:21:51.167Z,103388.16
2018-02-24T10:24:20.546Z,103383.85
2018-02-24T10:26:48.258Z,103400.83
2018-02-24T10:29:18.999Z,103409.41
2018-02-24T10:31:47.894Z,103391.98
2018-02-24T10:34:16.684Z,103384.84
2018-02-24T10:36:46.540Z,103386.25
2018-02-24T10:39:14.621Z,103392.90
2018-02-24T10:41:43.133Z,103377.45
2018-02-24T10:44:12.064Z,103381.80
2018-02-24T10:46:40.059Z,103373.77
2018-02-24T10:49:15.894Z,103377.38
2018-02-24T10:51:45.838Z,103390.67
2018-02-24T10:54:14.634Z,103387.87
2018-02-24T10:56:43.532Z,103389.85
2018-02-24T10:59:13.371Z,103386.45
2018-02-24T11:01:41.651Z,103395.28
2018-02-24T11:04:09.978Z,103393.05
2018-02-24T11:06:38.612Z,103400.74
2018-02-24T11:09:08.709Z,103401.66
2018-02-24T11:11:38.355Z,103394.16
2018-02-24T11:14:06.130Z,103400.83
2018-02-24T11:16:35.355Z,103392.86
2018-02-24T11:19:05.841Z,103389.94
2018-02-24T11:21:34.589Z,103389.98
2018-02-24T11:24:03.273Z,103390.03
2018-02-24T11:26:31.928Z,103388.93
2018-02-24T11:29:00.751Z,103384.33
2018-02-24T11:31:30.950Z,103377.84
2018-02-24T11:34:01.371Z,103374.63
2018-02-24T11:36:30.683Z,103383.17
2018-02-24T11:39:00.224Z,103383.64
2018-02-24T11:41:28.678Z,103387.28
2018-02-24T11:43:56.615Z,103381.37
2018-02-24T11:46:26.125Z,103370.95
2018-02-24T11:48:56.274Z,103361.61
2018-02-24T11:51:24.074Z,103371.23
2018-02-24T11:53:52.455Z,103370.61
2018-02-24T11:56:21.012Z,103376.98
2018-02-24T11:58:50.561Z,103383.42
2018-02-24T12:01:18.767Z,103382.48
2018-02-24T12:03:47.897Z,103366.10
2018-02-24T12:06:17.926Z,103401.72
2018-02-24T12:08:45.661Z,103400.14
2018-02-24T12:11:14.498Z,103393.78
2018-02-24T12:13:42.237Z,103384.41
2018-02-24T12:16:11.382Z,103387.77
2018-02-24T12:18:40.091Z,103385.23
2018-02-24T12:21:08.693Z,103381.69
2018-02-24T12:23:37.298Z,103360.23
2018-02-24T12:26:07.208Z,103363.70
2018-02-24T12:28:35.804Z,103355.23
2018-02-24T12:31:05.806Z,103361.57
2018-02-24T12:33:34.900Z,103370.25
2018-02-24T12:36:04.438Z,103369.76
2018-02-24T12:38:33.354Z,103363.42
2018-02-24T12:41:03.202Z,103357.69
2018-02-24T12:43:31.018Z,103353.11
2018-02-24T12:45:59.136Z,103378.09
2018-02-24T12:48:28.562Z,103378.09
2018-02-24T12:50:57.223Z,103371.19
2018-02-24T12:53:25.194Z,103370.62
2018-02-24T12:55:55.386Z,103369.72
2018-02-24T12:58:23.815Z,103377.73
2018-02-24T13:00:52.211Z,103355.71
2018-02-24T13:03:20.087Z,103357.00
2018-02-24T13:05:49.178Z,103369.49
2018-02-24T13:08:18.297Z,103366.77
2018-02-24T13:10:48.022Z,103365.55
2018-02-24T13:13:17.234Z,103361.17
2018-02-24T13:15:46.098Z,103351.48
2018-02-24T13:18:14.379Z,103362.44
2018-02-24T13:20:42.680Z,103340.81
2018-02-24T13:25:43.986Z,103349.77
2018-02-24T13:28:12.891Z,103340.58
2018-02-24T13:30:41.819Z,103347.78
2018-02-24T13:33:09.583Z,103341.87
2018-02-24T13:35:37.547Z,103341.05
2018-02-24T13:38:06.250Z,103338.13
2018-02-24T13:40:35.904Z,103341.72
2018-02-24T13:43:04.787Z,103358.04
2018-02-24T13:45:32.987Z,103350.66
2018-02-24T13:48:01.180Z,103352.69
2018-02-24T13:50:30.565Z,103348.13
2018-02-24T13:52:59.966Z,103354.56
2018-02-24T13:55:27.891Z,103346.33
2018-02-24T13:57:56.447Z,103342.38
2018-02-24T14:00:25.329Z,103346.66
2018-02-24T14:02:53.929Z,103358.28
2018-02-24T14:05:21.979Z,103349.61
2018-02-24T14:07:50.503Z,103349.27
2018-02-24T14:10:21.482Z,103363.72
2018-02-24T14:12:51.125Z,103369.23
2018-02-24T14:15:20.816Z,103369.72
2018-02-24T14:17:50.724Z,103371.87
2018-02-24T14:20:21.414Z,103371.66
2018-02-24T14:22:49.303Z,103379.09
2018-02-24T14:25:17.699Z,103361.36
2018-02-24T14:27:47.622Z,103371.33
2018-02-24T14:30:16.635Z,103371.91
2018-02-24T14:32:46.863Z,103364.57
2018-02-24T14:35:15.243Z,103359.34
2018-02-24T14:37:44.396Z,103351.13
2018-02-24T14:40:12.422Z,103359.41
2018-02-24T14:42:42.186Z,103374.77
2018-02-24T14:45:10.298Z,103376.05
2018-02-24T14:47:40.528Z,103381.50
2018-02-24T14:50:09.511Z,103390.86
2018-02-24T14:52:41.398Z,103395.74
2018-02-24T14:55:10.110Z,103403.63
2018-02-24T14:57:38.305Z,103406.38
2018-02-24T15:00:07.326Z,103403.48
2018-02-24T15:02:35.671Z,103407.91
2018-02-24T15:05:05.361Z,103390.48
2018-02-24T15:07:33.778Z,103395.97
2018-02-24T15:10:03.466Z,103413.00
2018-02-24T15:12:31.238Z,103410.47
2018-02-24T15:15:00.758Z,103412.97
2018-02-24T15:17:29.811Z,103410.95
2018-02-24T15:19:57.651Z,103415.12
2018-02-24T15:22:27.249Z,103411.17
2018-02-24T15:24:56.081Z,103417.67
2018-02-24T15:27:24.739Z,103421.73
2018-02-24T15:29:53.274Z,103425.63
2018-02-24T15:32:21.138Z,103435.53
2018-02-24T15:34:49.082Z,103438.64
2018-02-24T15:37:17.861Z,103415.46
2018-02-24T15:39:47.236Z,103427.91
2018-02-24T15:42:18.051Z,103420.53
2018-02-24T15:44:46.871Z,103432.77
2018-02-24T15:47:18.093Z,103437.97
2018-02-24T15:49:47.356Z,103436.75
2018-02-24T15:52:15.793Z,103444.88
2018-02-24T15:54:44.909Z,103449.62
2018-02-24T15:57:13.159Z,103451.02
2018-02-24T16:02:15.402Z,103447.10
2018-02-24T16:04:44.395Z,103446.69
2018-02-24T16:07:15.264Z,103445.01
2018-02-24T16:09:43.030Z,103443.23
2018-02-24T16:12:12.046Z,103450.66
2018-02-24T16:14:44.131Z,103454.73
2018-02-24T16:17:12.917Z,103454.80
2018-02-24T16:19:41.885Z,103451.59
2018-02-24T16:22:11.581Z,103459.81
2018-02-24T16:24:39.479Z,103459.92
2018-02-24T16:27:09.062Z,103464.66
2018-02-24T16:29:37.822Z,103466.61
2018-02-24T16:32:06.852Z,103474.19
2018-02-24T16:34:35.717Z,103474.80
2018-02-24T16:37:03.997Z,103482.27
2018-02-24T16:39:34.446Z,103476.48
2018-02-24T16:42:02.743Z,103481.74
2018-02-24T16:44:31.411Z,103474.75
2018-02-24T16:46:59.798Z,103464.97
2018-02-24T16:49:28.754Z,103482.25
2018-02-24T16:51:57.450Z,103468.78
2018-02-24T16:54:25.540Z,103486.16
2018-02-24T16:56:57.002Z,103486.41
2018-02-24T16:59:24.868Z,103502.14
2018-02-24T17:01:57.805Z,103502.73
2018-02-24T17:04:25.641Z,103505.55
2018-02-24T17:09:30.431Z,103509.77
2018-02-24T17:12:00.619Z,103510.38
2018-02-24T17:14:28.535Z,103520.63
2018-02-24T17:17:01.862Z,103509.17
2018-02-24T17:19:30.215Z,103517.02
2018-02-24T17:21:59.023Z,103521.83
2018-02-24T17:24:28.129Z,103521.80
2018-02-24T17:26:56.087Z,103518.25
2018-02-24T17:29:31.729Z,103527.84
2018-02-24T17:32:00.170Z,103529.15
2018-02-24T17:34:30.830Z,103535.23
2018-02-24T17:36:59.106Z,103535.38
2018-02-24T17:39:26.982Z,103532.64
2018-02-24T17:41:56.065Z,103535.38
2018-02-24T17:44:24.906Z,103524.84
2018-02-24T17:46:54.427Z,103528.23
2018-02-24T17:49:39.135Z,103531.85
2018-02-24T17:52:15.142Z,103530.48
2018-02-24T17:54:43.346Z,103526.13
2018-02-24T17:57:11.567Z,103532.17
2018-02-24T17:59:39.836Z,103529.61
2018-02-24T18:02:10.964Z,103530.12
2018-02-24T18:07:29.995Z,103536.09
2018-02-24T18:10:04.596Z,103535.69
2018-02-24T18:12:33.384Z,103529.38
2018-02-24T18:15:02.264Z,103537.31
2018-02-24T18:17:30.159Z,103540.05
2018-02-24T18:19:58.234Z,103538.87
2018-02-24T18:22:26.987Z,103542.83
2018-02-24T18:24:55.245Z,103531.95
2018-02-24T18:27:23.116Z,103534.29
2018-02-24T18:29:52.369Z,103523.77
2018-02-24T18:32:21.866Z,103531.33
2018-02-24T18:34:50.247Z,103531.47
2018-02-24T18:37:19.973Z,103536.87
2018-02-24T18:39:48.074Z,103532.88
2018-02-24T18:42:17.394Z,103536.39
2018-02-24T18:44:45.366Z,103544.04
2018-02-24T18:47:15.299Z,103539.14
2018-02-24T18:49:43.243Z,103539.66
2018-02-24T18:52:12.249Z,103549.22
2018-02-24T18:54:40.244Z,103547.93
2018-02-24T18:57:09.883Z,103546.88
2018-02-24T18:59:37.685Z,103540.28
2018-02-24T19:02:11.628Z,103546.41
2018-02-24T19:04:40.079Z,103549.94
2018-02-24T19:07:08.234Z,103560.81
2018-02-24T19:09:36.554Z,103558.55
2018-02-24T19:12:06.096Z,103557.98
2018-02-24T19:14:34.179Z,103556.95
2018-02-24T19:17:03.599Z,103551.43
2018-02-24T19:19:31.478Z,103547.95
2018-02-24T19:21:59.550Z,103551.73
2018-02-24T19:24:27.832Z,103553.08
2018-02-24T19:26:55.927Z,103568.13
2018-02-24T19:29:25.564Z,103560.25
2018-02-24T19:31:53.638Z,103554.95
2018-02-24T19:34:21.665Z,103556.89
2018-02-24T19:36:49.526Z,103555.82
2018-02-24T19:39:19.466Z,103559.55
2018-02-24T19:41:48.263Z,103556.00
2018-02-24T19:44:18.766Z,103567.09
2018-02-24T19:46:47.294Z,103572.00
2018-02-24T19:49:15.901Z,103574.03
2018-02-24T19:51:44.216Z,103576.43
2018-02-24T19:54:14.439Z,103587.27
2018-02-24T19:56:42.312Z,103582.25
2018-02-24T19:59:10.493Z,103580.45
2018-02-24T20:01:38.527Z,103575.36
2018-02-24T20:04:07.047Z,103578.83
2018-02-24T20:06:35.198Z,103575.95
2018-02-24T20:09:03.089Z,103574.14
2018-02-24T20:11:30.914Z,103575.09
2018-02-24T20:14:02.952Z,103579.96
2018-02-24T20:16:30.727Z,103583.71
2018-02-24T20:18:59.130Z,103579.91
2018-02-24T20:21:27.347Z,103593.55
2018-02-24T20:23:55.617Z,103598.35
2018-02-24T20:26:23.582Z,103600.91
2018-02-24T20:28:52.846Z,103603.63
2018-02-24T20:31:20.716Z,103599.70
2018-02-24T20:33:49.282Z,103606.10
2018-02-24T20:36:17.359Z,103604.23
2018-02-24T20:38:46.022Z,103603.13
2018-02-24T20:41:14.655Z,103601.82
2018-02-24T20:43:43.008Z,103602.77
2018-02-24T20:46:11.732Z,103602.84
2018-02-24T20:48:39.578Z,103608.55
2018-02-24T20:51:07.984Z,103610.34
2018-02-24T20:53:42.859Z,103611.70
2018-02-24T20:56:11.396Z,103611.36
2018-02-24T20:58:40.526Z,103615.27
2018-02-24T21:01:08.377Z,103615.35
2018-02-24T21:03:37.055Z,103619.09
2018-02-24T21:06:05.246Z,103619.20
2018-02-24T21:08:33.769Z,103616.97
2018-02-24T21:11:01.682Z,103612.87
2018-02-24T21:13:30.343Z,103611.08
2018-02-24T21:15:59.971Z,103622.83
2018-02-24T21:18:28.227Z,103622.98
2018-02-24T21:20:56.927Z,103624.66
2018-02-24T21:23:25.180Z,103630.26
2018-02-24T21:25:55.191Z,103628.28
2018-02-24T21:28:24.149Z,103636.83
2018-02-24T21:30:53.000Z,103633.30
2018-02-24T21:33:22.787Z,103640.81
2018-02-24T21:35:53.839Z,103642.58
2018-02-24T21:38:21.929Z,103643.54
2018-02-24T21:40:52.537Z,103633.88
2018-02-24T21:43:21.558Z,103638.96
2018-02-24T21:45:52.581Z,103637.05
2018-02-24T21:48:20.689Z,103641.82
2018-02-24T21:50:49.714Z,103644.55
2018-02-24T21:53:19.142Z,103646.21
2018-02-24T21:55:47.502Z,103656.08
2018-02-24T21:58:15.720Z,103659.05
2018-02-24T22:00:48.427Z,103649.73
2018-02-24T22:03:18.143Z,103657.17
2018-02-24T22:05:47.367Z,103655.27
2018-02-24T22:08:16.349Z,103655.30
2018-02-24T22:10:45.542Z,103658.15
2018-02-24T22:13:14.167Z,103656.75
2018-02-24T22:15:43.000Z,103664.25
2018-02-24T22:18:11.334Z,103669.97
2018-02-24T22:20:39.176Z,103660.89
2018-02-24T22:23:08.433Z,103666.66
2018-02-24T22:25:36.768Z,103674.09
2018-02-24T22:28:04.553Z,103674.39
2018-02-24T22:30:34.119Z,103679.14
2018-02-24T22:33:02.615Z,103681.36
2018-02-24T22:35:30.803Z,103683.98
2018-02-24T22:37:59.790Z,103684.58
2018-02-24T22:40:28.212Z,103687.64
2018-02-24T22:42:57.412Z,103688.27
2018-02-24T22:45:25.726Z,103695.34
2018-02-24T22:48:00.446Z,103695.17
2018-02-24T22:50:28.230Z,103695.41
2018-02-24T22:52:56.401Z,103693.87
2018-02-24T22:55:24.534Z,103698.36
2018-02-24T22:57:53.220Z,103697.93
2018-02-24T23:00:22.152Z,103698.80
2018-02-24T23:02:50.949Z,103700.48
2018-02-24T23:05:18.814Z,103698.80
2018-02-24T23:07:47.224Z,103706.09
2018-02-24T23:10:14.952Z,103711.19
2018-02-24T23:12:42.727Z,103706.16
2018-02-24T23:15:10.435Z,103698.73
2018-02-24T23:17:38.224Z,103703.94
2018-02-24T23:20:05.988Z,103698.23
2018-02-24T23:22:33.753Z,103707.46
2018-02-24T23:25:01.454Z,103707.09
2018-02-24T23:27:29.196Z,103706.40
2018-02-24T23:29:56.915Z,103706.72
2018-02-24T23:32:24.656Z,103711.10
2018-02-24T23:34:52.370Z,103708.61
2018-02-24T23:37:20.122Z,103711.16
2018-02-24T23:39:47.837Z,103705.95
2018-02-24T23:42:15.574Z,103705.02
2018-02-24T23:44:43.280Z,103712.42
2018-02-24T23:47:11.029Z,103704.61
2018-02-24T23:49:38.735Z,103704.70
2018-02-24T23:52:06.460Z,103710.47
2018-02-24T23:54:34.195Z,103706.81
2018-02-24T23:57:01.947Z,103704.16
2018-02-24T23:59:29.633Z,103712.84
